sensor_id;sensor_type;location;lat;lon;timestamp;pressure;altitude;pressure_sealevel;temperature;humidity
67013;BME280;53926;47.406;19.188;2022-12-24T00:00:59;99769.94;;;3.52;100.00
67013;BME280;53926;47.406;19.188;2022-12-24T00:03:25;99755.69;;;3.41;100.00
67013;BME280;53926;47.406;19.188;2022-12-24T00:05:52;99732.72;;;3.39;100.00
67013;BME280;53926;47.406;19.188;2022-12-24T00:08:19;99733.28;;;3.50;100.00
67013;BME280;53926;47.406;19.188;2022-12-24T00:10:50;99730.94;;;3.40;100.00
67013;BME280;53926;47.406;19.188;2022-12-24T00:13:18;99746.84;;;3.44;100.00
67013;BME280;53926;47.406;19.188;2022-12-24T00:15:45;99752.66;;;3.61;100.00
67013;BME280;53926;47.406;19.188;2022-12-24T00:18:11;99780.44;;;3.65;100.00
67013;BME280;53926;47.406;19.188;2022-12-24T00:20:38;99778.75;;;3.72;100.00
67013;BME280;53926;47.406;19.188;2022-12-24T00:23:05;99776.16;;;3.72;100.00
67013;BME280;53926;47.406;19.188;2022-12-24T00:25:32;99775.28;;;3.80;100.00
67013;BME280;53926;47.406;19.188;2022-12-24T00:27:58;99758.59;;;3.91;100.00
67013;BME280;53926;47.406;19.188;2022-12-24T00:30:25;99761.28;;;3.83;100.00
67013;BME280;53926;47.406;19.188;2022-12-24T00:32:51;99760.56;;;3.89;100.00
67013;BME280;53926;47.406;19.188;2022-12-24T00:35:18;99745.28;;;3.72;100.00
67013;BME280;53926;47.406;19.188;2022-12-24T00:37:48;99746.09;;;3.73;100.00
67013;BME280;53926;47.406;19.188;2022-12-24T00:40:16;99749.44;;;3.73;100.00
67013;BME280;53926;47.406;19.188;2022-12-24T00:42:43;99747.13;;;3.79;100.00
67013;BME280;53926;47.406;19.188;2022-12-24T00:45:10;99755.25;;;3.90;100.00
67013;BME280;53926;47.406;19.188;2022-12-24T00:47:37;99750.78;;;3.84;100.00
67013;BME280;53926;47.406;19.188;2022-12-24T00:50:04;99766.06;;;3.86;100.00
67013;BME280;53926;47.406;19.188;2022-12-24T00:52:31;99772.75;;;3.95;100.00
67013;BME280;53926;47.406;19.188;2022-12-24T00:54:58;99777.72;;;3.97;100.00
67013;BME280;53926;47.406;19.188;2022-12-24T00:57:24;99798.84;;;3.92;100.00
67013;BME280;53926;47.406;19.188;2022-12-24T00:59:51;99819.72;;;3.97;100.00
67013;BME280;53926;47.406;19.188;2022-12-24T01:02:18;99827.97;;;3.92;100.00
67013;BME280;53926;47.406;19.188;2022-12-24T01:04:45;99822.12;;;3.84;100.00
67013;BME280;53926;47.406;19.188;2022-12-24T01:07:30;99817.06;;;3.90;100.00
67013;BME280;53926;47.406;19.188;2022-12-24T01:09:57;99810.47;;;3.88;100.00
67013;BME280;53926;47.406;19.188;2022-12-24T01:12:23;99793.97;;;3.97;100.00
67013;BME280;53926;47.406;19.188;2022-12-24T01:14:50;99786.88;;;3.99;100.00
67013;BME280;53926;47.406;19.188;2022-12-24T01:17:17;99787.81;;;3.83;100.00
67013;BME280;53926;47.406;19.188;2022-12-24T01:19:44;99776.56;;;3.84;100.00
67013;BME280;53926;47.406;19.188;2022-12-24T01:22:10;99778.31;;;3.99;100.00
67013;BME280;53926;47.406;19.188;2022-12-24T01:24:39;99779.94;;;4.00;100.00
67013;BME280;53926;47.406;19.188;2022-12-24T01:27:07;99770.78;;;3.97;100.00
67013;BME280;53926;47.406;19.188;2022-12-24T01:29:34;99753.44;;;3.91;100.00
67013;BME280;53926;47.406;19.188;2022-12-24T01:32:00;99729.41;;;3.84;100.00
67013;BME280;53926;47.406;19.188;2022-12-24T01:34:27;99712.25;;;3.76;100.00
67013;BME280;53926;47.406;19.188;2022-12-24T01:36:54;99709.41;;;3.86;100.00
67013;BME280;53926;47.406;19.188;2022-12-24T01:39:20;99711.91;;;3.79;100.00
67013;BME280;53926;47.406;19.188;2022-12-24T01:41:47;99704.00;;;3.81;100.00
67013;BME280;53926;47.406;19.188;2022-12-24T01:44:35;99699.47;;;3.83;100.00
67013;BME280;53926;47.406;19.188;2022-12-24T01:47:21;99680.78;;;3.96;100.00
67013;BME280;53926;47.406;19.188;2022-12-24T01:49:53;99688.81;;;3.86;100.00
67013;BME280;53926;47.406;19.188;2022-12-24T01:52:24;99698.75;;;3.89;100.00
67013;BME280;53926;47.406;19.188;2022-12-24T01:55:08;99718.28;;;3.98;100.00
67013;BME280;53926;47.406;19.188;2022-12-24T01:57:40;99704.63;;;3.98;100.00
67013;BME280;53926;47.406;19.188;2022-12-24T02:00:11;99696.84;;;4.12;100.00
67013;BME280;53926;47.406;19.188;2022-12-24T02:02:39;99696.69;;;4.14;100.00
67013;BME280;53926;47.406;19.188;2022-12-24T02:05:17;99704.41;;;4.14;100.00
67013;BME280;53926;47.406;19.188;2022-12-24T02:07:48;99730.00;;;4.16;100.00
67013;BME280;53926;47.406;19.188;2022-12-24T02:10:16;99719.06;;;4.14;100.00
67013;BME280;53926;47.406;19.188;2022-12-24T02:12:43;99722.44;;;4.14;100.00
67013;BME280;53926;47.406;19.188;2022-12-24T02:15:12;99720.03;;;4.12;100.00
67013;BME280;53926;47.406;19.188;2022-12-24T02:26:08;99718.72;;;4.17;100.00
67013;BME280;53926;47.406;19.188;2022-12-24T02:31:28;99727.06;;;4.19;100.00
67013;BME280;53926;47.406;19.188;2022-12-24T02:34:05;99740.31;;;4.16;100.00
67013;BME280;53926;47.406;19.188;2022-12-24T02:40:03;99784.94;;;4.16;100.00
67013;BME280;53926;47.406;19.188;2022-12-24T02:42:31;99768.91;;;4.06;100.00
67013;BME280;53926;47.406;19.188;2022-12-24T02:45:04;99756.94;;;3.98;100.00
67013;BME280;53926;47.406;19.188;2022-12-24T02:47:32;99736.41;;;4.05;100.00
67013;BME280;53926;47.406;19.188;2022-12-24T02:50:01;99725.22;;;3.98;100.00
67013;BME280;53926;47.406;19.188;2022-12-24T02:54:56;99743.44;;;3.96;100.00
67013;BME280;53926;47.406;19.188;2022-12-24T03:00:20;99738.72;;;4.00;100.00
67013;BME280;53926;47.406;19.188;2022-12-24T03:05:51;99731.88;;;3.92;100.00
67013;BME280;53926;47.406;19.188;2022-12-24T03:08:35;99730.72;;;3.94;100.00
67013;BME280;53926;47.406;19.188;2022-12-24T03:11:10;99735.78;;;3.88;100.00
67013;BME280;53926;47.406;19.188;2022-12-24T03:13:39;99733.75;;;3.68;100.00
67013;BME280;53926;47.406;19.188;2022-12-24T03:16:09;99740.81;;;3.66;100.00
67013;BME280;53926;47.406;19.188;2022-12-24T03:18:41;99759.13;;;3.71;100.00
67013;BME280;53926;47.406;19.188;2022-12-24T03:21:20;99765.25;;;3.70;100.00
67013;BME280;53926;47.406;19.188;2022-12-24T03:23:49;99766.56;;;3.66;100.00
67013;BME280;53926;47.406;19.188;2022-12-24T03:26:17;99770.19;;;3.57;100.00
67013;BME280;53926;47.406;19.188;2022-12-24T03:28:45;99763.72;;;3.61;100.00
67013;BME280;53926;47.406;19.188;2022-12-24T03:31:13;99774.47;;;3.65;100.00
67013;BME280;53926;47.406;19.188;2022-12-24T03:33:40;99765.25;;;3.70;100.00
67013;BME280;53926;47.406;19.188;2022-12-24T03:36:07;99756.75;;;3.70;100.00
67013;BME280;53926;47.406;19.188;2022-12-24T03:38:34;99743.78;;;3.78;100.00
67013;BME280;53926;47.406;19.188;2022-12-24T03:41:02;99748.84;;;3.71;100.00
67013;BME280;53926;47.406;19.188;2022-12-24T03:43:29;99738.38;;;3.73;100.00
67013;BME280;53926;47.406;19.188;2022-12-24T03:45:56;99739.41;;;3.79;100.00
67013;BME280;53926;47.406;19.188;2022-12-24T03:48:22;99725.56;;;3.80;100.00
67013;BME280;53926;47.406;19.188;2022-12-24T03:50:57;99732.84;;;3.76;100.00
67013;BME280;53926;47.406;19.188;2022-12-24T03:53:24;99745.38;;;3.79;100.00
67013;BME280;53926;47.406;19.188;2022-12-24T03:55:51;99746.25;;;3.71;100.00
67013;BME280;53926;47.406;19.188;2022-12-24T03:58:17;99763.47;;;3.71;100.00
67013;BME280;53926;47.406;19.188;2022-12-24T04:00:44;99772.72;;;3.65;100.00
67013;BME280;53926;47.406;19.188;2022-12-24T04:03:10;99774.38;;;3.58;100.00
67013;BME280;53926;47.406;19.188;2022-12-24T04:05:37;99785.97;;;3.39;100.00
67013;BME280;53926;47.406;19.188;2022-12-24T04:08:04;99785.78;;;3.40;100.00
67013;BME280;53926;47.406;19.188;2022-12-24T04:10:30;99785.63;;;3.42;100.00
67013;BME280;53926;47.406;19.188;2022-12-24T04:12:57;99787.44;;;3.33;100.00
67013;BME280;53926;47.406;19.188;2022-12-24T04:15:23;99783.78;;;3.28;100.00
67013;BME280;53926;47.406;19.188;2022-12-24T04:17:50;99785.38;;;3.29;100.00
67013;BME280;53926;47.406;19.188;2022-12-24T04:20:17;99776.53;;;3.31;100.00
67013;BME280;53926;47.406;19.188;2022-12-24T04:22:43;99786.19;;;3.29;100.00
67013;BME280;53926;47.406;19.188;2022-12-24T04:25:10;99775.09;;;3.29;100.00
67013;BME280;53926;47.406;19.188;2022-12-24T04:27:36;99784.81;;;3.18;100.00
67013;BME280;53926;47.406;19.188;2022-12-24T04:30:03;99783.91;;;3.11;100.00
67013;BME280;53926;47.406;19.188;2022-12-24T04:32:31;99782.03;;;3.05;100.00
67013;BME280;53926;47.406;19.188;2022-12-24T04:34:57;99790.09;;;3.02;100.00
67013;BME280;53926;47.406;19.188;2022-12-24T04:37:24;99791.97;;;3.08;100.00
67013;BME280;53926;47.406;19.188;2022-12-24T04:39:50;99789.44;;;3.23;100.00
67013;BME280;53926;47.406;19.188;2022-12-24T04:42:17;99805.06;;;3.21;100.00
67013;BME280;53926;47.406;19.188;2022-12-24T04:44:43;99802.44;;;3.30;100.00
67013;BME280;53926;47.406;19.188;2022-12-24T04:47:10;99774.84;;;3.38;100.00
67013;BME280;53926;47.406;19.188;2022-12-24T04:49:37;99774.34;;;3.43;100.00
67013;BME280;53926;47.406;19.188;2022-12-24T04:52:04;99777.56;;;3.45;100.00
67013;BME280;53926;47.406;19.188;2022-12-24T04:54:30;99783.59;;;3.52;100.00
67013;BME280;53926;47.406;19.188;2022-12-24T04:56:57;99786.28;;;3.59;100.00
67013;BME280;53926;47.406;19.188;2022-12-24T04:59:24;99778.81;;;3.64;100.00
67013;BME280;53926;47.406;19.188;2022-12-24T05:01:50;99785.75;;;3.64;100.00
67013;BME280;53926;47.406;19.188;2022-12-24T05:04:17;99778.81;;;3.64;100.00
67013;BME280;53926;47.406;19.188;2022-12-24T05:06:44;99778.03;;;3.64;100.00
67013;BME280;53926;47.406;19.188;2022-12-24T05:09:10;99782.00;;;3.66;100.00
67013;BME280;53926;47.406;19.188;2022-12-24T05:11:37;99787.16;;;3.66;100.00
67013;BME280;53926;47.406;19.188;2022-12-24T05:14:03;99806.88;;;3.59;100.00
67013;BME280;53926;47.406;19.188;2022-12-24T05:16:30;99803.03;;;3.55;100.00
67013;BME280;53926;47.406;19.188;2022-12-24T05:18:57;99790.16;;;3.55;100.00
67013;BME280;53926;47.406;19.188;2022-12-24T05:21:24;99787.06;;;3.60;100.00
67013;BME280;53926;47.406;19.188;2022-12-24T05:23:51;99798.50;;;3.57;100.00
67013;BME280;53926;47.406;19.188;2022-12-24T05:26:49;99797.38;;;3.60;100.00
67013;BME280;53926;47.406;19.188;2022-12-24T05:29:16;99804.81;;;3.54;100.00
67013;BME280;53926;47.406;19.188;2022-12-24T05:31:43;99798.59;;;3.49;100.00
67013;BME280;53926;47.406;19.188;2022-12-24T05:34:12;99801.16;;;3.49;100.00
67013;BME280;53926;47.406;19.188;2022-12-24T05:36:39;99793.25;;;3.50;100.00
67013;BME280;53926;47.406;19.188;2022-12-24T05:39:05;99795.56;;;3.45;100.00
67013;BME280;53926;47.406;19.188;2022-12-24T05:41:41;99809.06;;;3.47;100.00
67013;BME280;53926;47.406;19.188;2022-12-24T05:44:07;99812.38;;;3.56;100.00
67013;BME280;53926;47.406;19.188;2022-12-24T05:46:34;99820.09;;;3.56;100.00
67013;BME280;53926;47.406;19.188;2022-12-24T05:49:01;99818.16;;;3.58;100.00
67013;BME280;53926;47.406;19.188;2022-12-24T05:51:27;99812.47;;;3.63;100.00
67013;BME280;53926;47.406;19.188;2022-12-24T05:53:54;99821.16;;;3.62;100.00
67013;BME280;53926;47.406;19.188;2022-12-24T05:56:21;99822.94;;;3.61;100.00
67013;BME280;53926;47.406;19.188;2022-12-24T05:58:49;99807.06;;;3.72;100.00
67013;BME280;53926;47.406;19.188;2022-12-24T06:01:17;99810.81;;;3.70;100.00
67013;BME280;53926;47.406;19.188;2022-12-24T06:03:43;99807.22;;;3.56;100.00
67013;BME280;53926;47.406;19.188;2022-12-24T06:06:13;99822.88;;;3.46;100.00
67013;BME280;53926;47.406;19.188;2022-12-24T06:08:40;99821.69;;;3.34;100.00
67013;BME280;53926;47.406;19.188;2022-12-24T06:11:10;99816.28;;;3.29;100.00
67013;BME280;53926;47.406;19.188;2022-12-24T06:13:39;99808.78;;;3.19;100.00
67013;BME280;53926;47.406;19.188;2022-12-24T06:16:09;99824.25;;;3.11;100.00
67013;BME280;53926;47.406;19.188;2022-12-24T06:18:37;99811.37;;;3.11;100.00
67013;BME280;53926;47.406;19.188;2022-12-24T06:21:05;99816.38;;;3.12;100.00
67013;BME280;53926;47.406;19.188;2022-12-24T06:23:34;99829.53;;;3.17;100.00
67013;BME280;53926;47.406;19.188;2022-12-24T06:26:02;99835.59;;;3.25;100.00
67013;BME280;53926;47.406;19.188;2022-12-24T06:28:31;99845.19;;;3.31;100.00
67013;BME280;53926;47.406;19.188;2022-12-24T06:30:58;99845.44;;;3.21;100.00
67013;BME280;53926;47.406;19.188;2022-12-24T06:33:30;99834.69;;;3.17;100.00
67013;BME280;53926;47.406;19.188;2022-12-24T06:35:57;99842.78;;;3.06;100.00
67013;BME280;53926;47.406;19.188;2022-12-24T06:38:24;99848.13;;;2.96;100.00
67013;BME280;53926;47.406;19.188;2022-12-24T06:40:51;99841.87;;;2.99;100.00
67013;BME280;53926;47.406;19.188;2022-12-24T06:43:18;99850.03;;;3.02;100.00
67013;BME280;53926;47.406;19.188;2022-12-24T06:45:46;99851.31;;;3.07;100.00
67013;BME280;53926;47.406;19.188;2022-12-24T06:48:13;99860.94;;;3.04;100.00
67013;BME280;53926;47.406;19.188;2022-12-24T06:50:41;99864.69;;;3.02;100.00
67013;BME280;53926;47.406;19.188;2022-12-24T06:53:08;99880.06;;;3.10;100.00
67013;BME280;53926;47.406;19.188;2022-12-24T06:55:35;99874.62;;;3.05;100.00
67013;BME280;53926;47.406;19.188;2022-12-24T06:58:02;99879.87;;;3.12;100.00
67013;BME280;53926;47.406;19.188;2022-12-24T07:00:29;99889.72;;;3.08;100.00
67013;BME280;53926;47.406;19.188;2022-12-24T07:02:56;99883.12;;;3.06;100.00
67013;BME280;53926;47.406;19.188;2022-12-24T07:05:23;99885.72;;;3.06;100.00
67013;BME280;53926;47.406;19.188;2022-12-24T07:07:49;99889.91;;;3.07;100.00
67013;BME280;53926;47.406;19.188;2022-12-24T07:10:16;99890.97;;;3.12;100.00
67013;BME280;53926;47.406;19.188;2022-12-24T07:12:43;99882.28;;;3.13;100.00
67013;BME280;53926;47.406;19.188;2022-12-24T07:15:11;99897.56;;;3.15;100.00
67013;BME280;53926;47.406;19.188;2022-12-24T07:17:38;99886.47;;;3.14;100.00
67013;BME280;53926;47.406;19.188;2022-12-24T07:20:07;99891.03;;;3.04;100.00
67013;BME280;53926;47.406;19.188;2022-12-24T07:22:33;99901.97;;;2.98;100.00
67013;BME280;53926;47.406;19.188;2022-12-24T07:25:00;99898.56;;;3.06;100.00
67013;BME280;53926;47.406;19.188;2022-12-24T07:27:27;99890.47;;;3.17;100.00
67013;BME280;53926;47.406;19.188;2022-12-24T07:29:54;99893.34;;;3.22;100.00
67013;BME280;53926;47.406;19.188;2022-12-24T07:32:23;99900.91;;;3.24;100.00
67013;BME280;53926;47.406;19.188;2022-12-24T07:34:50;99905.38;;;3.30;100.00
67013;BME280;53926;47.406;19.188;2022-12-24T07:37:17;99900.34;;;3.36;100.00
67013;BME280;53926;47.406;19.188;2022-12-24T07:39:46;99900.59;;;3.50;100.00
67013;BME280;53926;47.406;19.188;2022-12-24T07:42:12;99906.97;;;3.54;100.00
67013;BME280;53926;47.406;19.188;2022-12-24T07:44:39;99908.53;;;3.63;100.00
67013;BME280;53926;47.406;19.188;2022-12-24T07:47:06;99912.78;;;3.56;100.00
67013;BME280;53926;47.406;19.188;2022-12-24T07:49:32;99920.62;;;3.63;100.00
67013;BME280;53926;47.406;19.188;2022-12-24T07:52:00;99911.84;;;3.72;100.00
67013;BME280;53926;47.406;19.188;2022-12-24T07:54:28;99910.06;;;3.72;100.00
67013;BME280;53926;47.406;19.188;2022-12-24T07:56:54;99922.41;;;3.85;100.00
67013;BME280;53926;47.406;19.188;2022-12-24T07:59:21;99931.16;;;3.99;100.00
67013;BME280;53926;47.406;19.188;2022-12-24T08:01:48;99928.66;;;4.06;100.00
67013;BME280;53926;47.406;19.188;2022-12-24T08:04:17;99929.09;;;4.09;100.00
67013;BME280;53926;47.406;19.188;2022-12-24T08:06:43;99933.03;;;4.20;100.00
67013;BME280;53926;47.406;19.188;2022-12-24T08:09:10;99927.00;;;4.28;100.00
67013;BME280;53926;47.406;19.188;2022-12-24T08:11:39;99940.28;;;4.40;100.00
67013;BME280;53926;47.406;19.188;2022-12-24T08:14:13;99940.47;;;4.38;100.00
67013;BME280;53926;47.406;19.188;2022-12-24T08:16:40;99945.81;;;4.52;100.00
67013;BME280;53926;47.406;19.188;2022-12-24T08:19:06;99957.53;;;4.39;100.00
67013;BME280;53926;47.406;19.188;2022-12-24T08:21:36;99961.81;;;4.62;100.00
67013;BME280;53926;47.406;19.188;2022-12-24T08:24:03;99965.50;;;4.82;100.00
67013;BME280;53926;47.406;19.188;2022-12-24T08:26:29;99970.03;;;4.95;100.00
67013;BME280;53926;47.406;19.188;2022-12-24T08:28:56;99986.13;;;4.82;100.00
67013;BME280;53926;47.406;19.188;2022-12-24T08:31:23;99987.66;;;4.92;100.00
67013;BME280;53926;47.406;19.188;2022-12-24T08:33:50;99994.06;;;4.81;100.00
67013;BME280;53926;47.406;19.188;2022-12-24T08:36:16;99984.72;;;4.95;100.00
67013;BME280;53926;47.406;19.188;2022-12-24T08:38:43;99998.75;;;5.22;100.00
67013;BME280;53926;47.406;19.188;2022-12-24T08:41:09;99999.56;;;5.37;100.00
67013;BME280;53926;47.406;19.188;2022-12-24T08:43:36;100004.06;;;5.50;100.00
67013;BME280;53926;47.406;19.188;2022-12-24T08:46:04;100012.00;;;5.49;100.00
67013;BME280;53926;47.406;19.188;2022-12-24T08:48:32;100011.56;;;5.30;100.00
67013;BME280;53926;47.406;19.188;2022-12-24T08:50:58;100020.44;;;5.58;100.00
67013;BME280;53926;47.406;19.188;2022-12-24T08:53:25;100022.03;;;5.59;100.00
67013;BME280;53926;47.406;19.188;2022-12-24T08:55:52;100020.28;;;5.44;100.00
67013;BME280;53926;47.406;19.188;2022-12-24T08:58:21;100026.38;;;5.73;100.00
67013;BME280;53926;47.406;19.188;2022-12-24T09:00:48;100032.59;;;5.79;100.00
67013;BME280;53926;47.406;19.188;2022-12-24T09:03:15;100020.78;;;6.06;100.00
67013;BME280;53926;47.406;19.188;2022-12-24T09:05:48;100025.28;;;6.69;100.00
67013;BME280;53926;47.406;19.188;2022-12-24T09:08:15;100024.69;;;7.02;100.00
67013;BME280;53926;47.406;19.188;2022-12-24T09:10:42;100038.88;;;7.12;100.00
67013;BME280;53926;47.406;19.188;2022-12-24T09:13:08;100037.94;;;7.27;100.00
67013;BME280;53926;47.406;19.188;2022-12-24T09:15:35;100046.47;;;7.56;100.00
67013;BME280;53926;47.406;19.188;2022-12-24T09:18:02;100036.94;;;7.63;100.00
67013;BME280;53926;47.406;19.188;2022-12-24T09:20:28;100039.34;;;7.71;100.00
67013;BME280;53926;47.406;19.188;2022-12-24T09:22:55;100039.53;;;7.76;100.00
67013;BME280;53926;47.406;19.188;2022-12-24T09:25:22;100048.38;;;7.95;100.00
67013;BME280;53926;47.406;19.188;2022-12-24T09:27:48;100054.59;;;8.14;100.00
67013;BME280;53926;47.406;19.188;2022-12-24T09:30:15;100055.03;;;8.18;100.00
67013;BME280;53926;47.406;19.188;2022-12-24T09:32:41;100051.44;;;8.26;100.00
67013;BME280;53926;47.406;19.188;2022-12-24T09:35:08;100056.81;;;8.24;100.00
67013;BME280;53926;47.406;19.188;2022-12-24T09:37:36;100054.66;;;8.41;100.00
67013;BME280;53926;47.406;19.188;2022-12-24T09:40:03;100054.88;;;8.59;100.00
67013;BME280;53926;47.406;19.188;2022-12-24T09:45:10;100046.84;;;8.88;100.00
67013;BME280;53926;47.406;19.188;2022-12-24T09:48:11;100051.63;;;8.98;100.00
67013;BME280;53926;47.406;19.188;2022-12-24T09:50:39;100051.94;;;9.35;100.00
67013;BME280;53926;47.406;19.188;2022-12-24T09:56:20;100064.59;;;10.08;100.00
67013;BME280;53926;47.406;19.188;2022-12-24T09:58:55;100059.69;;;10.25;100.00
67013;BME280;53926;47.406;19.188;2022-12-24T10:01:23;100068.06;;;10.34;100.00
67013;BME280;53926;47.406;19.188;2022-12-24T10:03:50;100063.50;;;10.54;100.00
67013;BME280;53926;47.406;19.188;2022-12-24T10:06:20;100058.41;;;10.66;100.00
67013;BME280;53926;47.406;19.188;2022-12-24T10:12:14;100076.81;;;10.40;100.00
67013;BME280;53926;47.406;19.188;2022-12-24T10:20:29;100079.44;;;11.08;100.00
67013;BME280;53926;47.406;19.188;2022-12-24T10:25:47;100092.22;;;10.91;100.00
67013;BME280;53926;47.406;19.188;2022-12-24T10:28:23;100084.31;;;11.23;100.00
67013;BME280;53926;47.406;19.188;2022-12-24T10:30:58;100096.06;;;10.89;100.00
67013;BME280;53926;47.406;19.188;2022-12-24T10:33:31;100096.75;;;11.03;100.00
67013;BME280;53926;47.406;19.188;2022-12-24T10:36:01;100099.72;;;11.25;100.00
67013;BME280;53926;47.406;19.188;2022-12-24T10:38:37;100096.47;;;10.67;100.00
67013;BME280;53926;47.406;19.188;2022-12-24T10:41:04;100097.91;;;11.07;100.00
67013;BME280;53926;47.406;19.188;2022-12-24T10:43:30;100100.53;;;11.25;100.00
67013;BME280;53926;47.406;19.188;2022-12-24T10:46:00;100094.03;;;11.84;100.00
67013;BME280;53926;47.406;19.188;2022-12-24T10:48:32;100106.97;;;11.78;100.00
67013;BME280;53926;47.406;19.188;2022-12-24T10:51:12;100101.69;;;11.67;100.00
67013;BME280;53926;47.406;19.188;2022-12-24T10:53:47;100109.00;;;11.58;100.00
67013;BME280;53926;47.406;19.188;2022-12-24T10:56:16;100112.13;;;11.30;100.00
67013;BME280;53926;47.406;19.188;2022-12-24T10:58:44;100112.47;;;11.33;100.00
67013;BME280;53926;47.406;19.188;2022-12-24T11:01:12;100125.03;;;11.61;100.00
67013;BME280;53926;47.406;19.188;2022-12-24T11:03:39;100119.84;;;11.36;100.00
67013;BME280;53926;47.406;19.188;2022-12-24T11:06:13;100120.22;;;11.77;100.00
67013;BME280;53926;47.406;19.188;2022-12-24T11:08:43;100120.12;;;12.02;100.00
67013;BME280;53926;47.406;19.188;2022-12-24T11:11:18;100126.91;;;12.22;100.00
67013;BME280;53926;47.406;19.188;2022-12-24T11:18:53;100131.31;;;11.35;100.00
67013;BME280;53926;47.406;19.188;2022-12-24T11:21:24;100125.69;;;11.13;100.00
67013;BME280;53926;47.406;19.188;2022-12-24T11:23:54;100123.31;;;11.30;100.00
67013;BME280;53926;47.406;19.188;2022-12-24T11:26:27;100122.47;;;11.36;100.00
67013;BME280;53926;47.406;19.188;2022-12-24T11:29:13;100132.63;;;11.26;100.00
67013;BME280;53926;47.406;19.188;2022-12-24T11:31:43;100132.72;;;11.13;100.00
67013;BME280;53926;47.406;19.188;2022-12-24T11:34:30;100128.28;;;11.38;100.00
67013;BME280;53926;47.406;19.188;2022-12-24T11:37:20;100132.53;;;11.33;100.00
67013;BME280;53926;47.406;19.188;2022-12-24T11:39:48;100135.63;;;11.04;100.00
67013;BME280;53926;47.406;19.188;2022-12-24T11:42:23;100135.03;;;11.21;100.00
67013;BME280;53926;47.406;19.188;2022-12-24T11:44:50;100127.16;;;11.09;100.00
67013;BME280;53926;47.406;19.188;2022-12-24T11:47:31;100124.72;;;11.33;100.00
67013;BME280;53926;47.406;19.188;2022-12-24T11:50:34;100130.94;;;11.32;97.46
67013;BME280;53926;47.406;19.188;2022-12-24T12:01:34;100122.63;;;11.41;96.45
67013;BME280;53926;47.406;19.188;2022-12-24T12:04:09;100136.44;;;11.42;92.60
67013;BME280;53926;47.406;19.188;2022-12-24T12:06:56;100132.84;;;11.43;93.31
67013;BME280;53926;47.406;19.188;2022-12-24T12:09:28;100130.38;;;11.48;95.74
67013;BME280;53926;47.406;19.188;2022-12-24T12:12:26;100132.19;;;11.48;92.21
67013;BME280;53926;47.406;19.188;2022-12-24T12:15:08;100142.41;;;11.49;94.43
67013;BME280;53926;47.406;19.188;2022-12-24T12:20:44;100145.66;;;11.63;91.79
67013;BME280;53926;47.406;19.188;2022-12-24T12:23:15;100153.75;;;11.55;91.93
67013;BME280;53926;47.406;19.188;2022-12-24T12:25:49;100155.16;;;11.57;91.79
67013;BME280;53926;47.406;19.188;2022-12-24T12:30:44;100162.87;;;11.45;94.04
67013;BME280;53926;47.406;19.188;2022-12-24T12:33:29;100157.00;;;11.32;90.53
67013;BME280;53926;47.406;19.188;2022-12-24T12:35:59;100175.00;;;11.40;91.13
67013;BME280;53926;47.406;19.188;2022-12-24T12:38:27;100164.75;;;11.20;91.79
67013;BME280;53926;47.406;19.188;2022-12-24T12:57:14;100198.59;;;11.01;91.56
67013;BME280;53926;47.406;19.188;2022-12-24T12:59:49;100197.94;;;11.06;90.76
67013;BME280;53926;47.406;19.188;2022-12-24T13:19:43;100226.31;;;10.89;89.65
67013;BME280;53926;47.406;19.188;2022-12-24T13:22:14;100233.59;;;10.80;89.16
67013;BME280;53926;47.406;19.188;2022-12-24T13:24:47;100251.47;;;10.70;90.90
67013;BME280;53926;47.406;19.188;2022-12-24T13:27:20;100250.53;;;10.58;91.91
67013;BME280;53926;47.406;19.188;2022-12-24T13:32:45;100244.41;;;10.32;92.02
67013;BME280;53926;47.406;19.188;2022-12-24T13:37:46;100259.88;;;10.13;94.82
67013;BME280;53926;47.406;19.188;2022-12-24T13:40:25;100259.06;;;10.26;93.67
67013;BME280;53926;47.406;19.188;2022-12-24T13:50:48;100267.13;;;9.98;96.54
67013;BME280;53926;47.406;19.188;2022-12-24T13:53:26;100265.41;;;9.52;100.00
67013;BME280;53926;47.406;19.188;2022-12-24T13:55:58;100268.22;;;9.23;100.00
67013;BME280;53926;47.406;19.188;2022-12-24T13:58:29;100268.38;;;9.02;100.00
67013;BME280;53926;47.406;19.188;2022-12-24T14:00:59;100273.22;;;9.18;100.00
67013;BME280;53926;47.406;19.188;2022-12-24T14:04:04;100283.81;;;9.23;100.00
67013;BME280;53926;47.406;19.188;2022-12-24T14:06:26;100285.97;;;9.06;100.00
67013;BME280;53926;47.406;19.188;2022-12-24T14:08:57;100295.34;;;8.94;100.00
67013;BME280;53926;47.406;19.188;2022-12-24T14:14:31;100298.41;;;9.58;99.32
67013;BME280;53926;47.406;19.188;2022-12-24T14:17:20;100294.22;;;9.63;98.34
67013;BME280;53926;47.406;19.188;2022-12-24T14:19:52;100308.41;;;9.47;99.52
67013;BME280;53926;47.406;19.188;2022-12-24T14:22:29;100312.97;;;9.12;100.00
67013;BME280;53926;47.406;19.188;2022-12-24T14:25:01;100307.41;;;8.53;100.00
67013;BME280;53926;47.406;19.188;2022-12-24T14:27:42;100313.16;;;8.14;100.00
67013;BME280;53926;47.406;19.188;2022-12-24T14:30:26;100315.53;;;7.80;100.00
67013;BME280;53926;47.406;19.188;2022-12-24T14:32:53;100326.50;;;7.54;100.00
67013;BME280;53926;47.406;19.188;2022-12-24T14:37:59;100331.84;;;7.52;100.00
67013;BME280;53926;47.406;19.188;2022-12-24T14:40:30;100331.84;;;7.52;100.00
67013;BME280;53926;47.406;19.188;2022-12-24T14:43:06;100342.75;;;7.69;100.00
67013;BME280;53926;47.406;19.188;2022-12-24T14:45:44;100351.81;;;7.80;100.00
67013;BME280;53926;47.406;19.188;2022-12-24T14:48:30;100353.38;;;7.53;100.00
67013;BME280;53926;47.406;19.188;2022-12-24T14:56:18;100364.62;;;7.39;100.00